Terminal Aerodrome Forecast
Issued by NWS Topeka, KS

Home | Current Version | Previous Version | Text Only | Print | Product List | Glossary Off
Versions: 1 2 3 4 5 6 7 8 9 10 11 12 13 14 15 16 17 18 19 20 21 22 23 24

496
FTUS43 KTOP 132320
TAFTOP
TAF
KTOP 132320Z 1400/1424 14005KT P6SM SCT060
     FM140800 16003KT 6SM BR BKN028
     FM141500 17007KT P6SM BKN045=

USA.gov is the U.S. government's official web portal to all federal, state and local government web resources and services.